Wetterdaten: September 2010
Datum Temp Feuchte Luftdruck Regen Wind Richtung Sonnenschein UV Solar Windben
01.09.2010 11,9 C 91 % 1020,0 hPa 0,4 l/m 2,5 km/h NW 1,17 h 1,7 UV-I 144 W/m 5,6 km/h
02.09.2010 12,5 C 93 % 1019,5 hPa 0,2 l/m 1,4 km/h NW 0,33 h 1,4 UV-I 130 W/m 5,2 km/h
03.09.2010 13,0 C 88 % 1020,0 hPa 0,0 l/m 0,9 km/h N-NO 1,42 h 1,5 UV-I 192 W/m 2,4 km/h
04.09.2010 11,4 C 83 % 1021,0 hPa 0,0 l/m 1,8 km/h N-NO 4,50 h 1,8 UV-I 249 W/m 4,0 km/h
05.09.2010 11,3 C 81 % 1023,1 hPa 0,2 l/m 1,9 km/h O-SO 8,50 h 2,3 UV-I 382 W/m 6,0 km/h
06.09.2010 12,0 C 71 % 1017,7 hPa 0,0 l/m 3,7 km/h SO 9,58 h 2,3 UV-I 381 W/m 10,9 km/h
07.09.2010 12,1 C 77 % 1007,9 hPa 0,0 l/m 8,6 km/h SO 1,50 h 1,2 UV-I 152 W/m 19,7 km/h
08.09.2010 13,2 C 92 % 1006,1 hPa 2,4 l/m 8,7 km/h SO 0,00 h 0,9 UV-I 62 W/m 20,1 km/h
09.09.2010 13,4 C 94 % 1013,3 hPa 4,8 l/m 3,3 km/h S 0,25 h 1,2 UV-I 116 W/m 11,3 km/h
10.09.2010 13,1 C 93 % 1020,5 hPa 0,0 l/m 2,3 km/h S-SW 0,92 h 1,3 UV-I 150 W/m 9,6 km/h
11.09.2010 15,4 C 84 % 1019,0 hPa 0,2 l/m 5,4 km/h S 6,83 h 2,3 UV-I 303 W/m 10,4 km/h
12.09.2010 14,8 C 89 % 1019,1 hPa 7,6 l/m 3,8 km/h N-NW 3,58 h 2,1 UV-I 207 W/m 7,7 km/h
13.09.2010 12,9 C 88 % 1023,7 hPa 0,2 l/m 3,3 km/h NW 2,25 h 1,6 UV-I 189 W/m 8,1 km/h
14.09.2010 13,6 C 97 % 1014,3 hPa 28,4 l/m 7,1 km/h S 0,00 h 0,8 UV-I 43 W/m 15,7 km/h
15.09.2010 12,2 C 76 % 1007,2 hPa 9,0 l/m 8,1 km/h S 3,42 h 1,7 UV-I 241 W/m 18,9 km/h
16.09.2010 10,6 C 88 % 1008,2 hPa 5,6 l/m 7,5 km/h S 3,25 h 1,3 UV-I 198 W/m 15,3 km/h
17.09.2010 9,6 C 89 % 1012,2 hPa 5,6 l/m 5,9 km/h S 1,42 h 1,2 UV-I 141 W/m 19,3 km/h
18.09.2010 8,3 C 88 % 1017,0 hPa 1,2 l/m 3,3 km/h S 1,83 h 1,5 UV-I 184 W/m 12,9 km/h
19.09.2010 9,9 C 82 % 1016,9 hPa 0,2 l/m 3,7 km/h S 5,25 h 1,7 UV-I 242 W/m 8,4 km/h
20.09.2010 13,8 C 77 % 1015,2 hPa 0,0 l/m 3,3 km/h S 2,92 h 1,8 UV-I 227 W/m 9,6 km/h
21.09.2010 12,3 C 91 % 1021,1 hPa 0,0 l/m 0,8 km/h S 3,42 h 1,4 UV-I 181 W/m 2,8 km/h
22.09.2010 14,2 C 86 % 1019,5 hPa 0,2 l/m 3,9 km/h S 8,25 h 2,2 UV-I 310 W/m 8,0 km/h
23.09.2010 15,8 C 82 % 1010,1 hPa 0,0 l/m 4,5 km/h S 6,67 h 2,2 UV-I 282 W/m 9,3 km/h
24.09.2010 12,8 C 96 % 1001,0 hPa 11,2 l/m 3,2 km/h S 0,00 h 0,6 UV-I 40 W/m 8,1 km/h
25.09.2010 10,0 C 88 % 1005,0 hPa 1,4 l/m 3,9 km/h N-NW 0,42 h 1,0 UV-I 116 W/m 8,0 km/h
26.09.2010 7,6 C 87 % 1008,2 hPa 0,0 l/m 1,0 km/h S-SW 4,58 h 1,7 UV-I 251 W/m 2,4 km/h
27.09.2010 8,2 C 97 % 1009,9 hPa 22,6 l/m 6,0 km/h W 0,00 h 0,6 UV-I 30 W/m 18,1 km/h
28.09.2010 8,5 C 97 % 1016,2 hPa 3,0 l/m 1,0 km/h N-NW 0,00 h 0,8 UV-I 63 W/m 1,6 km/h
29.09.2010 7,5 C 89 % 1020,3 hPa 0,2 l/m 1,1 km/h NO 1,50 h 1,3 UV-I 156 W/m 6,0 km/h
30.09.2010 8,8 C 91 % 1016,2 hPa 0,0 l/m 8,4 km/h SO 3,58 h 1,4 UV-I 199 W/m 18,5 km/h
Min-Datum 29.09.10 06.09.10 24.09.10 20 Tage 01.09.10 - - - - 01.09.10
Min-Zeit 04:50 16:45 18:30 - 00:00 - - - - 00:00
Minimum 2,8 C 50 % 999,6 hPa - 0,0 km/h - - - - 0,0 km/h
Max-Datum 23.09.10 02.09.10 13.09.10 14.09.10 15.09.10 - 06.09.10 04.09.10 05.09.10 15.09.10
Max-Zeit 15:40 11:35 13:00 06:35 03:15 - 18:25 13:30 13:35 03:15
Maximum 23,0 C 100 % 1025,0 hPa 28,4 l/m 22,9 km/h
S
- 9,50 h 4,3 UV-I 886 W/m 40,2 km/h
S-SW
Durchschnitt 11,7 C 87 % 1015,0 hPa #104,6 l/m 4,0 km/h S #87:20 h 1,5 UV-I 185 W/m 10,1 km/h

Durchschnitt Minimum Temp.8,2 C
Durchschnitt Maximum Temp.16,1 C